createdAt,value
2023-05-24T00:03:19.324Z,99.90
2023-05-24T00:05:54.881Z,99.90
2023-05-24T00:08:27.236Z,99.90
2023-05-24T00:11:00.450Z,99.90
2023-05-24T00:13:32.378Z,99.90
2023-05-24T00:16:07.934Z,99.90
2023-05-24T00:18:41.498Z,99.90
2023-05-24T00:21:14.635Z,99.90
2023-05-24T00:26:20.338Z,99.90
2023-05-24T00:28:58.676Z,99.90
2023-05-24T00:31:31.109Z,99.90
2023-05-24T00:39:11.025Z,99.90
2023-05-24T00:41:43.757Z,99.90
2023-05-24T00:44:16.518Z,99.90
2023-05-24T00:46:48.749Z,99.90
2023-05-24T00:49:26.062Z,99.90
2023-05-24T00:51:58.960Z,99.90
2023-05-24T00:54:53.374Z,99.90
2023-05-24T00:57:25.345Z,99.90
2023-05-24T00:59:58.145Z,99.90
2023-05-24T01:05:05.864Z,99.90
2023-05-24T01:08:13.318Z,99.90
2023-05-24T01:11:05.568Z,99.90
2023-05-24T01:13:48.880Z,99.90
2023-05-24T01:16:34.973Z,99.90
2023-05-24T01:19:31.992Z,99.90
2023-05-24T01:22:25.219Z,99.90
2023-05-24T01:25:14.785Z,99.90
2023-05-24T01:27:48.521Z,99.90
2023-05-24T01:30:21.502Z,99.90
2023-05-24T01:32:54.109Z,99.90
2023-05-24T01:35:26.917Z,99.90
2023-05-24T01:40:32.234Z,99.90
2023-05-24T01:43:18.289Z,99.90
2023-05-24T01:46:14.076Z,99.90
2023-05-24T01:49:17.532Z,99.90
2023-05-24T01:51:54.824Z,99.90
2023-05-24T01:54:28.632Z,99.90
2023-05-24T01:57:06.036Z,99.90
2023-05-24T01:59:42.324Z,99.90
2023-05-24T02:02:15.504Z,99.90
2023-05-24T02:07:20.567Z,99.90
2023-05-24T02:09:52.504Z,99.90
2023-05-24T02:12:25.114Z,99.90
2023-05-24T02:14:57.308Z,99.90
2023-05-24T02:20:06.974Z,99.90
2023-05-24T02:22:39.896Z,99.90
2023-05-24T02:25:12.413Z,99.90
2023-05-24T02:27:47.392Z,99.90
2023-05-24T02:30:19.607Z,99.90
2023-05-24T02:32:52.803Z,99.90
2023-05-24T02:35:24.822Z,99.90
2023-05-24T02:37:58.880Z,99.90
2023-05-24T02:40:30.944Z,99.90
2023-05-24T02:43:03.669Z,99.90
2023-05-24T02:45:36.633Z,99.90
2023-05-24T02:48:09.238Z,99.90
2023-05-24T02:50:41.481Z,99.90
2023-05-24T02:53:14.659Z,99.90
2023-05-24T02:55:46.759Z,99.90
2023-05-24T02:58:20.674Z,99.90
2023-05-24T03:00:55.084Z,99.90
2023-05-24T03:03:28.156Z,99.90
2023-05-24T03:06:00.156Z,99.90
2023-05-24T03:08:33.472Z,99.90
2023-05-24T03:11:05.975Z,99.90
2023-05-24T03:13:40.136Z,99.90
2023-05-24T03:16:13.175Z,99.90
2023-05-24T03:18:45.093Z,99.90
2023-05-24T03:21:21.165Z,99.90
2023-05-24T03:23:53.494Z,99.90
2023-05-24T03:26:27.274Z,99.90
2023-05-24T03:31:39.191Z,99.90
2023-05-24T03:36:45.695Z,99.90
2023-05-24T03:39:17.594Z,99.90
2023-05-24T03:42:03.423Z,99.90
2023-05-24T03:44:36.644Z,99.90
2023-05-24T03:47:11.410Z,99.90
2023-05-24T03:49:43.370Z,99.90
2023-05-24T03:52:16.074Z,99.90
2023-05-24T03:57:21.909Z,99.90
2023-05-24T04:02:27.929Z,99.90
2023-05-24T04:04:59.952Z,99.90
2023-05-24T04:07:34.271Z,99.90
2023-05-24T04:10:07.702Z,99.90
2023-05-24T04:12:41.822Z,99.90
2023-05-24T04:15:15.196Z,99.90
2023-05-24T04:17:47.979Z,99.90
2023-05-24T04:20:26.031Z,99.90
2023-05-24T04:22:58.728Z,99.90
2023-05-24T04:25:33.665Z,99.90
2023-05-24T04:28:06.128Z,99.90
2023-05-24T04:30:39.286Z,99.90
2023-05-24T04:33:11.401Z,99.90
2023-05-24T04:38:16.632Z,99.90
2023-05-24T04:40:49.340Z,99.90
2023-05-24T04:43:21.261Z,99.90
2023-05-24T04:45:57.601Z,99.90
2023-05-24T04:48:29.908Z,99.90
2023-05-24T04:51:03.253Z,99.90
2023-05-24T04:53:35.386Z,99.90
2023-05-24T04:56:08.055Z,99.90
2023-05-24T04:58:39.983Z,99.90
2023-05-24T05:01:12.874Z,99.90
2023-05-24T05:03:46.001Z,99.90
2023-05-24T05:06:18.685Z,99.90
2023-05-24T05:08:51.927Z,99.90
2023-05-24T05:11:24.484Z,99.90
2023-05-24T05:16:29.507Z,99.90
2023-05-24T05:19:04.573Z,99.90
2023-05-24T05:21:37.324Z,99.90
2023-05-24T05:24:09.575Z,99.90
2023-05-24T05:26:42.236Z,99.90
2023-05-24T05:29:14.643Z,99.90
2023-05-24T05:31:47.143Z,99.90
2023-05-24T05:34:20.205Z,99.90
2023-05-24T05:36:52.107Z,99.90
2023-05-24T05:39:24.771Z,99.90
2023-05-24T05:41:56.679Z,99.90
2023-05-24T05:47:01.658Z,99.90
2023-05-24T05:57:13.890Z,99.90
2023-05-24T05:59:46.489Z,99.90
2023-05-24T06:02:19.180Z,99.90
2023-05-24T06:04:51.964Z,99.90
2023-05-24T06:07:23.950Z,99.90
2023-05-24T06:09:56.538Z,99.90
2023-05-24T06:12:28.427Z,99.90
2023-05-24T06:17:33.051Z,99.90
2023-05-24T06:20:08.525Z,99.90
2023-05-24T06:22:42.697Z,99.90
2023-05-24T06:25:19.364Z,99.90
2023-05-24T06:27:51.724Z,99.90
2023-05-24T06:30:24.542Z,99.90
2023-05-24T06:35:29.487Z,99.90
2023-05-24T06:38:01.446Z,99.90
2023-05-24T06:40:34.080Z,99.90
2023-05-24T06:43:06.259Z,99.90
2023-05-24T06:48:11.438Z,99.90
2023-05-24T06:50:45.186Z,99.90
2023-05-24T06:58:22.872Z,99.90
2023-05-24T07:03:28.289Z,99.90
2023-05-24T07:06:01.196Z,99.90
2023-05-24T07:08:33.284Z,99.90
2023-05-24T07:11:06.527Z,99.90
2023-05-24T07:13:38.796Z,99.90
2023-05-24T07:16:12.197Z,99.90
2023-05-24T07:18:44.297Z,99.90
2023-05-24T07:21:16.374Z,99.90
2023-05-24T07:23:51.109Z,99.90
2023-05-24T07:26:23.695Z,99.90
2023-05-24T07:28:56.160Z,99.90
2023-05-24T07:31:29.914Z,99.90
2023-05-24T07:36:35.137Z,99.90
2023-05-24T07:39:10.341Z,99.90
2023-05-24T07:41:42.382Z,99.90
2023-05-24T07:44:15.293Z,99.90
2023-05-24T07:54:26.734Z,99.90
2023-05-24T07:56:58.690Z,99.90
2023-05-24T07:59:31.415Z,99.90
2023-05-24T08:09:44.048Z,99.90
2023-05-24T08:12:17.159Z,99.90
2023-05-24T08:14:50.016Z,99.90
2023-05-24T08:17:21.975Z,99.90
2023-05-24T08:19:54.353Z,99.90
2023-05-24T08:24:59.508Z,99.90
2023-05-24T08:30:04.626Z,99.90
2023-05-24T08:35:20.926Z,99.90
2023-05-24T08:37:54.672Z,99.90
2023-05-24T08:40:26.627Z,99.90
2023-05-24T08:43:02.333Z,99.90
2023-05-24T08:45:37.562Z,99.90
2023-05-24T08:48:11.005Z,99.90
2023-05-24T08:50:43.489Z,99.90
2023-05-24T08:53:16.654Z,99.90
2023-05-24T08:55:53.128Z,99.90
2023-05-24T08:58:26.242Z,99.90
2023-05-24T09:00:59.856Z,99.90
2023-05-24T09:03:33.805Z,99.90
2023-05-24T09:08:43.658Z,99.90
2023-05-24T09:11:17.095Z,99.90
2023-05-24T09:13:50.074Z,99.90
2023-05-24T09:26:33.232Z,99.90
2023-05-24T09:29:09.604Z,99.90
2023-05-24T09:31:43.216Z,99.90
2023-05-24T09:34:16.695Z,99.90
2023-05-24T09:39:21.768Z,99.90
2023-05-24T09:41:56.292Z,99.90
2023-05-24T09:44:28.948Z,99.90
2023-05-24T09:47:07.142Z,99.90
2023-05-24T09:49:41.625Z,99.90
2023-05-24T09:52:16.718Z,99.90
2023-05-24T09:58:08.258Z,99.90
2023-05-24T10:00:44.234Z,99.90
2023-05-24T10:03:19.691Z,99.90
2023-05-24T10:08:28.513Z,99.90
2023-05-24T10:11:05.136Z,99.90
2023-05-24T10:16:10.710Z,99.90
2023-05-24T10:18:43.948Z,99.90
2023-05-24T10:21:17.588Z,99.90
2023-05-24T10:23:55.362Z,99.90
2023-05-24T10:26:32.706Z,99.90
2023-05-24T10:29:11.551Z,99.90
2023-05-24T10:31:44.958Z,99.90
2023-05-24T10:34:18.402Z,99.90
2023-05-24T10:36:51.901Z,99.90
2023-05-24T10:39:27.301Z,99.90
2023-05-24T10:42:07.237Z,99.90
2023-05-24T10:44:42.009Z,99.90
2023-05-24T10:47:17.627Z,99.90
2023-05-24T10:49:58.252Z,99.90
2023-05-24T10:52:37.805Z,99.90
2023-05-24T10:55:12.613Z,99.90
2023-05-24T10:57:44.590Z,99.90
2023-05-24T11:03:09.399Z,99.90
2023-05-24T11:05:47.116Z,99.90
2023-05-24T11:08:35.874Z,99.90
2023-05-24T11:11:22.973Z,99.90
2023-05-24T11:14:01.779Z,99.90
2023-05-24T11:16:37.539Z,99.90
2023-05-24T11:19:21.847Z,99.90
2023-05-24T11:21:58.761Z,99.90
2023-05-24T11:24:35.540Z,99.90
2023-05-24T11:27:08.464Z,99.90
2023-05-24T11:29:45.579Z,99.90
2023-05-24T11:32:21.687Z,99.90
2023-05-24T11:34:54.623Z,99.90
2023-05-24T11:37:38.395Z,99.90
2023-05-24T11:40:12.121Z,99.90
2023-05-24T11:45:19.761Z,99.90
2023-05-24T11:50:28.502Z,99.90
2023-05-24T11:53:05.123Z,99.90
2023-05-24T11:55:37.470Z,99.90
2023-05-24T11:58:26.851Z,99.90
2023-05-24T12:00:59.009Z,99.90
2023-05-24T12:03:33.780Z,99.90
2023-05-24T12:06:06.675Z,99.90
2023-05-24T12:08:42.279Z,99.90
2023-05-24T12:11:16.074Z,99.90
2023-05-24T12:13:49.181Z,99.90
2023-05-24T12:16:23.359Z,99.90
2023-05-24T12:19:31.566Z,99.90
2023-05-24T12:22:07.849Z,99.90
2023-05-24T12:24:43.633Z,99.90
2023-05-24T12:27:16.205Z,99.90
2023-05-24T12:29:52.451Z,99.90
2023-05-24T12:32:24.585Z,99.90
2023-05-24T12:34:59.681Z,99.90
2023-05-24T12:37:32.273Z,99.90
2023-05-24T12:40:19.161Z,99.90
2023-05-24T12:43:11.249Z,99.90
2023-05-24T12:45:43.929Z,99.90
2023-05-24T12:48:17.560Z,99.90
2023-05-24T12:50:51.129Z,99.90
2023-05-24T12:58:54.887Z,99.90
2023-05-24T13:01:27.845Z,99.90
2023-05-24T13:04:02.354Z,99.90
2023-05-24T13:06:34.939Z,99.90
2023-05-24T13:09:08.954Z,99.90
2023-05-24T13:11:41.056Z,99.90
2023-05-24T13:16:48.672Z,99.90
2023-05-24T13:19:21.600Z,99.90
2023-05-24T13:21:54.146Z,99.90
2023-05-24T13:24:28.761Z,99.90
2023-05-24T13:29:42.398Z,99.90
2023-05-24T13:32:17.669Z,99.90
2023-05-24T13:37:25.501Z,99.90
2023-05-24T13:39:57.792Z,99.90
2023-05-24T13:42:29.985Z,99.90
2023-05-24T13:45:03.730Z,99.90
2023-05-24T13:53:26.826Z,99.90
2023-05-24T13:55:59.429Z,99.90
2023-05-24T13:58:31.707Z,99.90
2023-05-24T14:01:06.098Z,99.90
2023-05-24T14:06:14.318Z,99.90
2023-05-24T14:08:46.720Z,99.90
2023-05-24T14:11:20.246Z,99.90
2023-05-24T14:16:30.200Z,99.90
2023-05-24T14:19:03.025Z,99.90
2023-05-24T14:24:09.755Z,99.90
2023-05-24T14:31:48.431Z,99.90
2023-05-24T14:34:21.916Z,99.90
2023-05-24T14:36:54.772Z,99.90
2023-05-24T14:39:27.145Z,99.90
2023-05-24T14:41:59.088Z,99.90
2023-05-24T14:47:06.644Z,99.90
2023-05-24T14:57:17.514Z,99.90
2023-05-24T14:59:49.583Z,99.90
2023-05-24T15:04:55.615Z,99.90
2023-05-24T15:10:01.546Z,99.90
2023-05-24T15:15:08.756Z,99.90
2023-05-24T15:17:41.172Z,99.90
2023-05-24T15:20:13.144Z,99.90
2023-05-24T15:22:46.733Z,99.90
2023-05-24T15:27:51.968Z,99.90
2023-05-24T15:30:24.956Z,99.90
2023-05-24T15:35:29.792Z,99.90
2023-05-24T15:38:03.279Z,99.90
2023-05-24T15:40:35.647Z,99.90
2023-05-24T15:43:09.293Z,99.90
2023-05-24T15:45:43.775Z,99.90
2023-05-24T15:48:17.201Z,99.90
2023-05-24T15:53:42.767Z,99.90
2023-05-24T15:56:14.673Z,99.90
2023-05-24T16:01:20.914Z,99.90
2023-05-24T16:06:47.362Z,99.60
2023-05-24T16:14:26.585Z,99.70
2023-05-24T16:19:33.958Z,99.60
2023-05-24T16:22:07.601Z,99.50
2023-05-24T16:24:40.740Z,99.60
2023-05-24T16:27:13.444Z,99.40
2023-05-24T16:40:02.746Z,99.10
2023-05-24T16:42:35.141Z,98.90
2023-05-24T16:45:08.937Z,98.70
2023-05-24T16:52:48.373Z,98.60
2023-05-24T16:55:20.988Z,98.60
2023-05-24T16:57:53.164Z,98.30
2023-05-24T17:03:00.241Z,98.30
2023-05-24T17:05:33.437Z,98.40
2023-05-24T17:08:06.600Z,98.10
2023-05-24T17:10:38.997Z,98.10
2023-05-24T17:13:11.604Z,98.10
2023-05-24T17:15:44.039Z,98.00
2023-05-24T17:20:48.799Z,97.70
2023-05-24T17:25:55.986Z,97.70
2023-05-24T17:28:28.339Z,97.40
2023-05-24T17:31:02.479Z,97.90
2023-05-24T17:33:34.821Z,98.20
2023-05-24T17:36:07.446Z,98.20
2023-05-24T17:41:13.280Z,98.60
2023-05-24T17:51:28.603Z,96.60
2023-05-24T17:54:23.261Z,96.30
2023-05-24T17:59:28.326Z,96.00
2023-05-24T18:04:33.827Z,97.60
2023-05-24T18:09:39.364Z,97.30
2023-05-24T18:12:12.807Z,97.30
2023-05-24T18:14:45.654Z,98.80
2023-05-24T18:17:17.770Z,98.20
2023-05-24T18:22:24.021Z,99.90
2023-05-24T18:30:23.279Z,99.80
2023-05-24T18:35:36.128Z,99.90
2023-05-24T18:38:08.041Z,99.90
2023-05-24T18:40:41.264Z,99.90
2023-05-24T18:43:13.562Z,99.90
2023-05-24T18:45:46.109Z,99.90
2023-05-24T18:48:18.627Z,99.90
2023-05-24T18:50:51.950Z,99.90
2023-05-24T18:53:25.830Z,99.90
2023-05-24T18:58:33.574Z,99.90
2023-05-24T19:01:05.650Z,99.90
2023-05-24T19:03:39.845Z,99.90
2023-05-24T19:06:14.411Z,99.90
2023-05-24T19:08:47.382Z,99.90
2023-05-24T19:11:19.415Z,99.90
2023-05-24T19:13:52.231Z,99.90
2023-05-24T19:16:24.196Z,99.90
2023-05-24T19:18:57.676Z,99.90
2023-05-24T19:21:31.896Z,99.90
2023-05-24T19:31:45.799Z,99.90
2023-05-24T19:34:19.511Z,99.90
2023-05-24T19:36:52.265Z,99.90
2023-05-24T19:39:26.228Z,99.90
2023-05-24T19:41:58.549Z,99.90
2023-05-24T19:47:42.178Z,99.90
2023-05-24T19:50:15.435Z,99.90
2023-05-24T19:55:20.643Z,99.90
2023-05-24T19:57:52.966Z,99.90
2023-05-24T20:02:58.372Z,99.90
2023-05-24T20:05:30.862Z,99.90
2023-05-24T20:08:02.758Z,99.90
2023-05-24T20:10:36.871Z,99.90
2023-05-24T20:18:15.063Z,99.90
2023-05-24T20:23:20.002Z,99.90
2023-05-24T20:25:52.790Z,99.90
2023-05-24T20:28:30.656Z,99.90
2023-05-24T20:31:04.427Z,99.90
2023-05-24T20:33:38.539Z,99.90
2023-05-24T20:36:11.044Z,99.90
2023-05-24T20:41:17.433Z,99.90
2023-05-24T20:46:26.681Z,99.90
2023-05-24T20:51:32.195Z,99.90
2023-05-24T20:54:04.857Z,99.90
2023-05-24T20:56:37.889Z,99.90
2023-05-24T20:59:09.809Z,99.90
2023-05-24T21:01:43.260Z,99.90
2023-05-24T21:04:15.466Z,99.90
2023-05-24T21:06:48.178Z,99.90
2023-05-24T21:09:20.081Z,99.90
2023-05-24T21:11:52.944Z,99.90
2023-05-24T21:19:54.456Z,99.90
2023-05-24T21:25:12.437Z,99.90
2023-05-24T21:27:44.376Z,99.90
2023-05-24T21:30:17.147Z,99.90
2023-05-24T21:32:49.585Z,99.90
2023-05-24T21:35:21.640Z,99.90
2023-05-24T21:37:54.485Z,99.90
2023-05-24T21:40:27.098Z,99.90
2023-05-24T21:42:59.415Z,99.90
2023-05-24T21:45:31.638Z,99.90
2023-05-24T21:48:04.697Z,99.90
2023-05-24T21:50:36.751Z,99.90
2023-05-24T21:53:09.483Z,99.90
2023-05-24T21:55:42.730Z,99.90
2023-05-24T22:05:53.282Z,99.90
2023-05-24T22:08:26.057Z,99.90
2023-05-24T22:10:58.161Z,99.90
2023-05-24T22:13:30.513Z,99.90
2023-05-24T22:16:02.586Z,99.90
2023-05-24T22:18:35.351Z,99.90
2023-05-24T22:23:41.660Z,99.90
2023-05-24T22:28:53.485Z,99.90
2023-05-24T22:31:25.765Z,99.90
2023-05-24T22:34:03.952Z,99.90
2023-05-24T22:39:11.718Z,99.90
2023-05-24T22:44:17.164Z,99.90
2023-05-24T22:54:36.391Z,99.90
2023-05-24T22:57:09.621Z,99.90
2023-05-24T22:59:43.026Z,99.90
2023-05-24T23:02:14.972Z,99.90
2023-05-24T23:07:41.115Z,99.90
2023-05-24T23:10:13.833Z,99.90
2023-05-24T23:12:46.433Z,99.90
2023-05-24T23:15:18.455Z,99.90
2023-05-24T23:17:53.097Z,99.90
2023-05-24T23:20:27.704Z,99.90
2023-05-24T23:23:06.447Z,99.90
2023-05-24T23:25:38.389Z,99.90
2023-05-24T23:28:11.247Z,99.90
2023-05-24T23:33:16.749Z,99.90
2023-05-24T23:35:49.554Z,99.90
2023-05-24T23:38:21.871Z,99.90
2023-05-24T23:40:54.637Z,99.90
2023-05-24T23:43:26.973Z,99.90
2023-05-24T23:46:00.115Z,99.90
2023-05-24T23:48:32.113Z,99.90
2023-05-24T23:51:05.201Z,99.90
2023-05-24T23:53:37.208Z,99.90
2023-05-24T23:56:09.922Z,99.90
